Terminal Aerodrome Forecast
Issued by NWS North Platte, NE

Home | Current Version | Previous Version | Text Only | Print | Product List | Glossary Off
Versions: 1 2 3 4 5 6 7 8 9 10 11 12 13 14 15 16 17

000
FTUS43 KLBF 141700
TAFVTN
TAF
KVTN 141736Z 1418/1518 09010KT P6SM SCT150
     FM142100 10008KT P6SM BKN050
     FM150300 07008KT P6SM BKN025
     FM151000 35006KT P6SM BKN015
     FM151400 35006KT P6SM SCT015=

USA.gov is the U.S. government's official web portal to all federal, state and local government web resources and services.